Time;durP1;ratioP1;P1;durP2;ratioP2;P2;SDS_P1;SDS_P2;PMS_P1;PMS_P2;Temp;Humidity;BMP_temperature;BMP_pressure;BME280_temperature;BME280_humidity;BME280_pressure;Samples;Min_cycle;Max_cycle;Signal;HPM_P1;HPM_P2
2021/11/05 00:00:00;;;;;;;7.38;2.08;;;384.10;2329.60;;;;;;4805633;29;20031;-82
2021/11/05 00:02:29;;;;;;;7.75;2.40;;;384.10;2329.60;;;;;;4790604;29;20117;-83
2021/11/05 00:04:56;;;;;;;8.45;2.50;;;384.10;2329.60;;;;;;4790404;29;20515;-92
2021/11/05 00:07:22;;;;;;;5.80;2.35;;;384.10;2329.60;;;;;;4806120;29;20115;-81
2021/11/05 00:09:48;;;;;;;8.02;2.17;;;384.10;2329.60;;;;;;4805175;29;20130;-80
2021/11/05 00:12:14;;;;;;;4.93;1.40;;;384.10;2329.60;;;;;;4806569;29;20031;-81
2021/11/05 00:14:41;;;;;;;3.05;1.27;;;384.10;2329.60;;;;;;4805204;29;20061;-91
2021/11/05 00:17:08;;;;;;;2.97;1.58;;;384.00;2329.60;;;;;;4806494;29;20038;-82
2021/11/05 00:19:34;;;;;;;41.15;2.00;;;384.00;2329.60;;;;;;4810133;29;20100;-91
2021/11/05 00:22:00;;;;;;;7.35;1.85;;;384.00;2329.60;;;;;;4808943;29;20031;-82
2021/11/05 00:24:26;;;;;;;5.53;2.58;;;384.00;2329.60;;;;;;4809057;29;20057;-83
2021/11/05 00:26:52;;;;;;;9.60;3.25;;;384.10;2329.60;;;;;;4810230;29;20033;-90
2021/11/05 00:29:18;;;;;;;5.55;1.50;;;384.00;2329.60;;;;;;4808682;29;20042;-82
2021/11/05 00:31:44;;;;;;;4.65;0.90;;;384.00;2329.60;;;;;;4808727;29;20445;-90
2021/11/05 00:34:10;;;;;;;4.75;1.30;;;384.00;2329.60;;;;;;4793852;29;20041;-82
2021/11/05 00:36:36;;;;;;;3.03;1.27;;;359.30;2329.60;;;;;;4809747;29;20500;-83
2021/11/05 00:39:02;;;;;;;6.95;1.30;;;359.30;2329.60;;;;;;4793689;29;20034;-82
2021/11/05 00:41:28;;;;;;;4.05;1.17;;;359.30;2329.60;;;;;;4808537;29;20045;-82
2021/11/05 00:43:54;;;;;;;2.17;1.20;;;359.30;2329.60;;;;;;4808599;29;20030;-93
2021/11/05 00:46:20;;;;;;;3.25;1.52;;;359.30;2329.60;;;;;;4808546;29;20061;-82
2021/11/05 00:48:46;;;;;;;2.63;1.30;;;359.30;2329.60;;;;;;4808400;29;20038;-83
2021/11/05 00:51:12;;;;;;;4.75;1.55;;;359.20;2329.60;;;;;;4809329;29;20043;-82
2021/11/05 00:53:38;;;;;;;6.07;2.20;;;359.20;2329.60;;;;;;4793106;29;20031;-82
2021/11/05 00:56:04;;;;;;;5.90;2.17;;;359.20;2329.60;;;;;;4809515;29;20031;-84
2021/11/05 00:58:30;;;;;;;6.18;2.13;;;359.10;2329.60;;;;;;4793169;29;20073;-82
2021/11/05 01:00:56;;;;;;;5.75;1.70;;;359.10;2329.60;;;;;;4793193;29;20434;-82
2021/11/05 01:03:22;;;;;;;6.78;2.38;;;359.20;2329.60;;;;;;4808264;29;20031;-82
2021/11/05 01:05:48;;;;;;;10.10;3.15;;;359.10;2329.60;;;;;;4808276;29;20035;-82
2021/11/05 01:08:14;;;;;;;7.57;3.25;;;359.10;2329.60;;;;;;4808077;29;20549;-92
2021/11/05 01:10:40;;;;;;;7.70;2.78;;;359.00;2329.60;;;;;;4793035;29;20631;-92
2021/11/05 01:13:07;;;;;;;7.88;3.63;;;359.10;2329.60;;;;;;4809329;29;20087;-84
2021/11/05 01:15:33;;;;;;;6.68;4.28;;;359.00;2329.60;;;;;;4792559;29;20425;-82
2021/11/05 01:17:59;;;;;;;8.02;5.10;;;359.10;2329.60;;;;;;4809228;29;20035;-83
2021/11/05 01:20:26;;;;;;;9.00;4.78;;;359.10;2329.60;;;;;;4808065;29;20400;-91
2021/11/05 01:22:52;;;;;;;14.10;6.88;;;358.90;2329.60;;;;;;4807785;29;20473;-90
2021/11/05 01:25:18;;;;;;;13.15;5.78;;;358.90;2329.60;;;;;;4792874;29;20388;-83
2021/11/05 01:27:45;;;;;;;7.88;5.00;;;358.90;2329.60;;;;;;4807421;29;20047;-82
2021/11/05 01:30:12;;;;;;;6.55;4.15;;;358.90;2329.60;;;;;;4792532;29;20408;-82
2021/11/05 01:32:41;;;;;;;8.35;3.67;;;359.00;2329.60;;;;;;4792743;29;20037;-83
2021/11/05 01:35:07;;;;;;;6.47;4.03;;;359.00;2329.60;;;;;;4792754;29;20477;-82
2021/11/05 01:37:33;;;;;;;8.07;3.88;;;359.00;2329.60;;;;;;4792550;29;20023;-82
2021/11/05 01:39:59;;;;;;;10.02;5.10;;;359.00;2329.60;;;;;;4808925;29;20451;-92
2021/11/05 01:42:26;;;;;;;11.07;4.55;;;359.00;2329.60;;;;;;4809113;29;20102;-87
2021/11/05 01:44:52;;;;;;;11.77;4.50;;;359.00;2329.60;;;;;;4792663;29;20035;-88
2021/11/05 01:47:18;;;;;;;9.82;5.32;;;359.00;2329.60;;;;;;4808668;29;20039;-81
2021/11/05 01:49:45;;;;;;;8.73;5.82;;;359.00;2329.60;;;;;;4807446;29;20091;-81
2021/11/05 01:52:12;;;;;;;10.75;5.00;;;359.00;2329.60;;;;;;4808618;29;20027;-89
2021/11/05 01:54:38;;;;;;;7.72;5.20;;;359.00;2329.60;;;;;;4792251;29;20085;-82
2021/11/05 01:57:05;;;;;;;8.00;5.00;;;359.10;2329.60;;;;;;4807106;29;20027;-82
2021/11/05 01:59:34;;;;;;;8.82;5.13;;;359.10;2329.60;;;;;;4808550;29;20042;-81
2021/11/05 02:02:03;;;;;;;8.65;4.28;;;359.10;2329.60;;;;;;4807540;29;20027;-89
2021/11/05 02:04:29;;;;;;;10.40;4.20;;;359.00;2329.60;;;;;;4807394;29;20031;-83
2021/11/05 02:06:56;;;;;;;8.90;3.92;;;359.00;2329.60;;;;;;4808182;29;20038;-91
2021/11/05 02:09:24;;;;;;;9.20;3.38;;;359.00;2329.60;;;;;;4806956;29;20043;-92
2021/11/05 02:11:54;;;;;;;8.02;2.10;;;359.00;2329.60;;;;;;4807937;29;20043;-90
2021/11/05 02:14:23;;;;;;;3.70;1.58;;;359.10;2329.60;;;;;;4792226;29;20085;-83
2021/11/05 02:16:52;;;;;;;5.05;1.92;;;359.10;2329.60;;;;;;4808219;29;20045;-82
2021/11/05 02:19:20;;;;;;;4.40;1.75;;;359.10;2329.60;;;;;;4806972;29;20121;-82
2021/11/05 02:21:49;;;;;;;6.13;1.75;;;359.10;2329.60;;;;;;4806713;29;20049;-80
2021/11/05 02:24:17;;;;;;;4.78;1.80;;;359.00;2329.60;;;;;;4806721;29;20034;-90
2021/11/05 02:26:44;;;;;;;4.13;1.80;;;359.10;2329.60;;;;;;4808009;29;20034;-90
2021/11/05 02:29:11;;;;;;;5.72;1.65;;;359.00;2329.60;;;;;;4807883;29;20043;-82
2021/11/05 02:31:37;;;;;;;5.35;1.45;;;359.00;2329.60;;;;;;4808106;29;20388;-82
2021/11/05 02:34:03;;;;;;;3.85;1.25;;;359.00;2329.60;;;;;;4806653;29;20489;-81
2021/11/05 02:36:30;;;;;;;4.63;1.70;;;359.00;2329.60;;;;;;4806767;29;20026;-81
2021/11/05 02:38:57;;;;;;;6.50;2.10;;;359.00;2329.60;;;;;;4791582;29;20489;-83
2021/11/05 02:41:23;;;;;;;7.25;1.70;;;359.00;2329.60;;;;;;4806055;29;20058;-81
2021/11/05 02:43:51;;;;;;;3.72;1.58;;;359.00;2329.60;;;;;;4807794;29;20497;-81
2021/11/05 02:46:17;;;;;;;6.72;1.77;;;359.00;2329.60;;;;;;4791416;29;20500;-81
2021/11/05 02:48:43;;;;;;;9.88;5.85;;;359.00;2329.60;;;;;;4807460;29;20030;-90
2021/11/05 02:51:12;;;;;;;10.95;8.00;;;359.00;2329.60;;;;;;4791230;29;20034;-81
2021/11/05 02:53:38;;;;;;;11.43;8.57;;;359.00;2329.60;;;;;;4776462;29;20484;-89
2021/11/05 02:56:05;;;;;;;8.70;7.68;;;359.00;2329.60;;;;;;4806328;29;20074;-82
2021/11/05 02:58:32;;;;;;;8.85;6.35;;;358.70;2329.60;;;;;;4806288;29;20412;-89
2021/11/05 03:00:59;;;;;;;7.30;4.70;;;359.00;2329.60;;;;;;4806405;29;20114;-82
2021/11/05 03:03:26;;;;;;;5.30;3.67;;;359.00;2329.60;;;;;;4791310;29;20396;-81
2021/11/05 03:05:53;;;;;;;7.18;2.13;;;358.90;2329.60;;;;;;4805942;29;20022;-89
2021/11/05 03:08:19;;;;;;;5.25;2.17;;;358.90;2329.60;;;;;;4805963;29;20492;-82
2021/11/05 03:10:45;;;;;;;5.10;2.38;;;358.90;2329.60;;;;;;4790927;29;20026;-81
2021/11/05 03:13:11;;;;;;;7.68;2.58;;;358.90;2329.60;;;;;;4791011;29;20442;-82
2021/11/05 03:15:37;;;;;;;5.22;3.00;;;358.90;2329.60;;;;;;4806692;29;20050;-83
2021/11/05 03:18:04;;;;;;;7.05;2.60;;;358.90;2329.60;;;;;;4805863;29;20050;-88
2021/11/05 03:20:30;;;;;;;7.15;2.97;;;358.90;2329.60;;;;;;4807109;29;20029;-82
2021/11/05 03:22:56;;;;;;;8.60;4.97;;;358.90;2329.60;;;;;;4807074;29;20035;-84
2021/11/05 03:25:22;;;;;;;6.50;4.07;;;358.90;2329.60;;;;;;4790930;29;20392;-82
2021/11/05 03:27:48;;;;;;;7.43;4.68;;;358.90;2329.60;;;;;;4790928;29;20035;-82
2021/11/05 03:30:19;;;;;;;6.72;3.33;;;358.90;2329.60;;;;;;4790713;29;20103;-91
2021/11/05 03:32:45;;;;;;;7.78;4.68;;;358.90;2329.60;;;;;;4790857;29;20023;-82
2021/11/05 03:35:12;;;;;;;5.72;4.30;;;358.80;2329.60;;;;;;4805758;29;20034;-81
2021/11/05 03:37:39;;;;;;;6.78;4.43;;;358.80;2329.60;;;;;;4790525;29;20038;-82
2021/11/05 03:40:08;;;;;;;8.05;4.93;;;358.80;2329.60;;;;;;4805732;29;20042;-91
2021/11/05 03:42:34;;;;;;;6.28;4.82;;;358.80;2329.60;;;;;;4806504;29;20034;-83
2021/11/05 03:45:00;;;;;;;6.35;4.35;;;358.80;2329.60;;;;;;4806689;29;20038;-82
2021/11/05 03:47:26;;;;;;;7.80;3.85;;;358.80;2329.60;;;;;;4790450;29;20035;-82
2021/11/05 03:49:52;;;;;;;8.25;4.57;;;358.80;2329.60;;;;;;4806929;29;20160;-91
2021/11/05 03:52:18;;;;;;;8.13;3.20;;;358.80;2329.60;;;;;;4790512;29;20027;-88
2021/11/05 03:54:44;;;;;;;5.80;2.33;;;358.80;2329.60;;;;;;4805473;29;20030;-81
2021/11/05 03:57:10;;;;;;;4.20;2.33;;;358.80;2329.60;;;;;;4805402;29;20181;-81
2021/11/05 03:59:36;;;;;;;4.88;2.42;;;358.80;2329.60;;;;;;4806567;29;20469;-81
2021/11/05 04:02:03;;;;;;;6.10;2.65;;;358.80;2329.60;;;;;;4805446;29;20034;-82
2021/11/05 04:04:29;;;;;;;7.00;2.45;;;358.70;2329.60;;;;;;4790426;29;20035;-82
2021/11/05 04:06:55;;;;;;;7.10;2.63;;;358.70;2329.60;;;;;;4790461;29;20369;-89
2021/11/05 04:09:21;;;;;;;7.07;3.10;;;358.60;2329.60;;;;;;4806523;29;20027;-81
2021/11/05 04:11:47;;;;;;;9.90;3.95;;;358.60;2329.60;;;;;;4806838;29;20031;-81
2021/11/05 04:14:13;;;;;;;9.65;3.92;;;358.60;2329.60;;;;;;4805211;29;20054;-80
2021/11/05 04:16:39;;;;;;;6.72;3.85;;;358.60;2329.60;;;;;;4806476;29;20118;-92
2021/11/05 04:19:05;;;;;;;7.82;4.30;;;358.50;2329.60;;;;;;4806405;29;20035;-81
2021/11/05 04:21:32;;;;;;;10.57;4.45;;;358.60;2329.60;;;;;;4806418;29;20039;-86
2021/11/05 04:24:01;;;;;;;7.45;4.55;;;358.50;2329.60;;;;;;4805315;29;20031;-81
2021/11/05 04:26:27;;;;;;;8.35;4.13;;;358.50;2329.60;;;;;;4806349;29;20027;-82
2021/11/05 04:28:53;;;;;;;10.75;4.60;;;358.50;2329.60;;;;;;4806280;29;20042;-90
2021/11/05 04:31:19;;;;;;;9.38;5.10;;;358.50;2329.60;;;;;;4805272;29;20031;-81
2021/11/05 04:33:45;;;;;;;8.93;5.60;;;358.50;2329.60;;;;;;4805453;29;20397;-93
2021/11/05 04:36:11;;;;;;;10.13;5.70;;;358.40;2329.60;;;;;;4806625;29;20027;-81
2021/11/05 04:38:37;;;;;;;10.13;5.63;;;358.40;2329.60;;;;;;4805102;29;20027;-81
2021/11/05 04:41:03;;;;;;;11.98;6.32;;;358.40;2329.60;;;;;;4806198;29;20035;-80
2021/11/05 04:43:29;;;;;;;9.07;6.75;;;358.50;2329.60;;;;;;4790441;29;20035;-90
2021/11/05 04:45:56;;;;;;;13.68;7.20;;;358.40;2329.60;;;;;;4804985;29;20038;-91
2021/11/05 04:48:22;;;;;;;11.02;7.07;;;358.40;2329.60;;;;;;4805091;29;20033;-90
2021/11/05 04:50:48;;;;;;;11.77;7.63;;;358.40;2329.60;;;;;;4805069;29;20515;-80
2021/11/05 04:53:13;;;;;;;13.43;8.70;;;358.50;2329.60;;;;;;4789793;29;20035;-90
2021/11/05 04:55:39;;;;;;;12.98;8.35;;;358.40;2329.60;;;;;;4806219;29;20031;-90
2021/11/05 04:58:05;;;;;;;13.68;8.85;;;358.50;2329.60;;;;;;4789842;29;20083;-81
2021/11/05 05:00:31;;;;;;;10.75;8.40;;;358.40;2329.60;;;;;;4789952;29;20035;-89
2021/11/05 05:02:57;;;;;;;11.57;8.55;;;358.50;2329.60;;;;;;4790542;29;20392;-81
2021/11/05 05:05:27;;;;;;;12.05;8.45;;;358.50;2329.60;;;;;;4793209;29;20035;-85
2021/11/05 05:07:54;;;;;;;11.98;8.40;;;358.50;2329.60;;;;;;4808148;29;20131;-91
2021/11/05 05:10:20;;;;;;;13.55;8.88;;;358.50;2329.60;;;;;;4809239;29;20075;-90
2021/11/05 05:12:46;;;;;;;11.85;8.75;;;358.50;2329.60;;;;;;4809256;29;20039;-80
2021/11/05 05:15:14;;;;;;;14.07;9.40;;;358.50;2329.60;;;;;;4792844;29;20066;-91
2021/11/05 05:17:40;;;;;;;13.70;9.68;;;358.40;2329.60;;;;;;4809217;29;20533;-81
2021/11/05 05:20:09;;;;;;;13.20;8.98;;;358.40;2329.60;;;;;;4793127;29;20035;-83
2021/11/05 05:22:38;;;;;;;17.58;12.13;;;358.40;2329.60;;;;;;4808084;29;20035;-92
2021/11/05 05:25:08;;;;;;;20.90;13.60;;;358.40;2329.60;;;;;;4809159;29;20141;-90
2021/11/05 05:27:34;;;;;;;47.15;27.52;;;358.50;2329.60;;;;;;4792303;29;20035;-90
2021/11/05 05:30:05;;;;;;;38.95;26.27;;;358.40;2329.60;;;;;;4809068;29;20049;-82
2021/11/05 05:32:31;;;;;;;22.88;16.92;;;358.40;2329.60;;;;;;4809228;29;20031;-91
2021/11/05 05:34:57;;;;;;;20.35;14.13;;;358.40;2329.60;;;;;;4792679;29;20043;-82
2021/11/05 05:37:22;;;;;;;18.13;14.98;;;358.50;2329.60;;;;;;4809007;29;20097;-80
2021/11/05 05:39:48;;;;;;;24.80;17.77;;;358.50;2329.60;;;;;;4809279;29;20062;-90
2021/11/05 05:42:14;;;;;;;66.80;40.53;;;358.50;2329.60;;;;;;4793082;29;20540;-90
2021/11/05 05:44:40;;;;;;;70.60;40.08;;;358.50;2329.60;;;;;;4809085;29;20038;-90
2021/11/05 05:47:07;;;;;;;55.53;32.17;;;358.50;2329.60;;;;;;4792502;29;20455;-81
2021/11/05 05:49:34;;;;;;;31.58;20.95;;;358.40;2329.60;;;;;;4792405;29;20042;-80
2021/11/05 05:52:00;;;;;;;28.55;21.15;;;358.40;2329.60;;;;;;4808813;29;20041;-82
2021/11/05 05:54:26;;;;;;;24.52;19.33;;;358.40;2329.60;;;;;;4792734;29;20129;-88
2021/11/05 05:56:52;;;;;;;23.27;18.52;;;358.40;2329.60;;;;;;4808940;29;20027;-90
2021/11/05 05:59:19;;;;;;;26.88;19.63;;;358.40;2329.60;;;;;;4807640;29;20030;-88
2021/11/05 06:01:45;;;;;;;25.73;19.65;;;358.40;2329.60;;;;;;4792598;29;20077;-89
2021/11/05 06:04:11;;;;;;;25.38;18.67;;;358.40;2329.60;;;;;;4807081;29;20034;-90
2021/11/05 06:06:38;;;;;;;24.23;18.77;;;358.40;2329.60;;;;;;4792288;29;20039;-81
2021/11/05 06:09:04;;;;;;;27.92;18.65;;;333.70;2329.60;;;;;;4808765;29;20031;-91
2021/11/05 06:11:29;;;;;;;23.75;18.00;;;333.70;2329.60;;;;;;4808613;29;20045;-91
2021/11/05 06:13:56;;;;;;;27.88;18.45;;;358.40;2329.60;;;;;;4808062;29;20595;-92
2021/11/05 06:16:22;;;;;;;28.40;20.70;;;358.40;2329.60;;;;;;4789967;24;20129;-90
2021/11/05 06:18:47;;;;;;;24.08;19.48;;;358.40;2329.60;;;;;;4790285;29;20174;-93
2021/11/05 06:21:13;;;;;;;12.60;9.10;;;358.40;2329.60;;;;;;4789494;30;20504;-93
2021/11/05 06:23:39;;;;;;;8.82;5.10;;;333.60;2329.60;;;;;;4789382;29;20039;-93
2021/11/05 06:26:05;;;;;;;4.70;3.08;;;333.40;2329.60;;;;;;4788073;29;20060;-93
2021/11/05 06:28:31;;;;;;;7.55;3.22;;;333.20;2329.60;;;;;;4804454;29;20035;-90
2021/11/05 06:30:57;;;;;;;10.98;3.47;;;333.10;2329.60;;;;;;4789403;29;20053;-94
2021/11/05 06:33:22;;;;;;;6.60;3.50;;;332.90;2329.60;;;;;;4789526;29;20034;-93
2021/11/05 06:35:48;;;;;;;5.95;3.70;;;332.80;2329.60;;;;;;4804542;29;20077;-93
2021/11/05 06:38:15;;;;;;;5.05;3.42;;;332.80;2329.60;;;;;;4789790;30;20035;-94
2021/11/05 06:40:41;;;;;;;4.80;3.88;;;308.10;2304.00;;;;;;4790407;30;20035;-94
2021/11/05 06:43:08;;;;;;;7.13;4.47;;;308.00;2304.00;;;;;;4790380;29;20401;-92
2021/11/05 06:45:34;;;;;;;7.68;5.40;;;308.00;2304.00;;;;;;4790372;30;20028;-90
2021/11/05 06:47:59;;;;;;;20.95;11.75;;;308.00;2304.00;;;;;;4789036;29;20035;-91
2021/11/05 06:50:25;;;;;;;31.35;17.92;;;308.00;2304.00;;;;;;4790161;30;20062;-91
2021/11/05 06:52:51;;;;;;;27.17;16.35;;;307.90;2304.00;;;;;;4788851;30;20117;-93
2021/11/05 06:55:17;;;;;;;15.68;9.65;;;307.90;2304.00;;;;;;4773970;30;20062;-85
2021/11/05 06:57:43;;;;;;;11.10;8.15;;;307.90;2304.00;;;;;;4788877;30;20034;-94
2021/11/05 07:00:12;;;;;;;10.48;7.05;;;307.90;2304.00;;;;;;4788859;30;20036;-85
2021/11/05 07:02:42;;;;;;;8.65;7.28;;;307.80;2304.00;;;;;;4788659;30;20126;-91
2021/11/05 07:05:11;;;;;;;9.55;7.10;;;307.90;2304.00;;;;;;4788315;30;20398;-87
2021/11/05 07:07:37;;;;;;;12.10;8.73;;;307.90;2304.00;;;;;;4789939;30;20023;-88
2021/11/05 07:10:04;;;;;;;18.17;11.90;;;307.90;2304.00;;;;;;4788610;30;20088;-93
2021/11/05 07:12:31;;;;;;;14.52;10.63;;;307.90;2304.00;;;;;;4791669;29;20023;-92
2021/11/05 07:14:57;;;;;;;9.95;7.68;;;307.80;2304.00;;;;;;4806521;29;20099;-86
2021/11/05 07:17:23;;;;;;;9.27;6.88;;;307.90;2304.00;;;;;;4806784;29;20088;-93
2021/11/05 07:19:49;;;;;;;10.15;6.88;;;307.80;2304.00;;;;;;4806786;29;20035;-93
2021/11/05 07:22:15;;;;;;;11.23;8.52;;;307.80;2304.00;;;;;;4806725;29;20034;-93
2021/11/05 07:24:41;;;;;;;27.48;18.08;;;307.80;2304.00;;;;;;4807406;29;20027;-91
2021/11/05 07:27:07;;;;;;;40.40;29.20;;;307.80;2304.00;;;;;;4806276;29;20599;-92
2021/11/05 07:29:33;;;;;;;37.88;27.92;;;307.80;2304.00;;;;;;4791435;29;20038;-92
2021/11/05 07:32:02;;;;;;;22.88;18.55;;;307.80;2304.00;;;;;;4799192;29;20049;-94
2021/11/05 07:34:32;;;;;;;22.27;17.10;;;307.80;2304.00;;;;;;4806429;29;20101;-93
2021/11/05 07:37:00;;;;;;;22.48;18.27;;;307.80;2304.00;;;;;;4791385;29;20503;-93
2021/11/05 07:39:27;;;;;;;37.28;29.35;;;307.80;2304.00;;;;;;4791376;29;20121;-84
2021/11/05 07:41:53;;;;;;;42.55;30.10;;;307.90;2304.00;;;;;;4791227;29;20083;-95
2021/11/05 07:44:18;;;;;;;52.58;30.17;;;307.80;2304.00;;;;;;4791183;29;20117;-92
2021/11/05 07:46:46;;;;;;;37.22;25.58;;;307.80;2304.00;;;;;;4806116;29;20083;-95
2021/11/05 07:49:13;;;;;;;29.58;21.33;;;307.90;2304.00;;;;;;4807331;29;20035;-92
2021/11/05 07:51:39;;;;;;;24.50;18.90;;;307.90;2304.00;;;;;;4791313;29;20038;-93
2021/11/05 07:54:07;;;;;;;15.90;11.57;;;307.80;2304.00;;;;;;4807229;29;20540;-95
2021/11/05 07:56:33;;;;;;;8.30;6.38;;;307.90;2304.00;;;;;;4791348;29;20037;-96
2021/11/05 07:58:59;;;;;;;8.30;7.35;;;307.90;2304.00;;;;;;4799058;29;20035;-92
2021/11/05 08:01:26;;;;;;;15.20;12.10;;;307.90;2304.00;;;;;;4807240;29;20477;-93
2021/11/05 08:03:51;;;;;;;15.65;12.18;;;307.90;2304.00;;;;;;4790974;29;20111;-94
2021/11/05 08:06:17;;;;;;;16.08;12.13;;;307.80;2304.00;;;;;;4807432;29;20031;-96
2021/11/05 08:08:43;;;;;;;12.27;9.93;;;307.80;2304.00;;;;;;4806016;29;20481;-91
2021/11/05 08:11:10;;;;;;;14.02;11.57;;;307.80;2304.00;;;;;;4805859;29;20031;-95
2021/11/05 08:13:37;;;;;;;12.73;8.95;;;307.70;2304.00;;;;;;4807046;29;20031;-95
2021/11/05 08:16:03;;;;;;;9.45;7.90;;;307.70;2304.00;;;;;;4806828;29;20138;-93
2021/11/05 08:18:29;;;;;;;8.23;6.70;;;307.70;2304.00;;;;;;4806800;29;20035;-95
2021/11/05 08:20:55;;;;;;;7.85;7.00;;;307.70;2304.00;;;;;;4807063;29;20035;-94
2021/11/05 08:23:21;;;;;;;11.02;6.30;;;307.60;2304.00;;;;;;4807199;29;20496;-95
2021/11/05 08:25:48;;;;;;;10.55;8.10;;;307.60;2304.00;;;;;;4810151;29;20098;-96
2021/11/05 08:28:18;;;;;;;18.52;15.02;;;307.60;2304.00;;;;;;4805769;29;20477;-95
2021/11/05 08:30:47;;;;;;;15.07;11.57;;;307.60;2304.00;;;;;;4803039;29;20496;-93
2021/11/05 08:33:13;;;;;;;9.82;8.10;;;307.50;2304.00;;;;;;4817902;29;20110;-93
2021/11/05 08:35:48;;;;;;;17.95;12.90;;;307.50;2304.00;;;;;;4797027;29;20019;-94
2021/11/05 08:38:15;;;;;;;12.40;10.05;;;307.50;2304.00;;;;;;4821048;29;20086;-96
2021/11/05 08:40:47;;;;;;;7.82;6.18;;;307.50;2304.00;;;;;;4802803;29;20098;-93
2021/11/05 08:43:15;;;;;;;8.48;5.93;;;307.50;2304.00;;;;;;4810738;29;20117;-93
2021/11/05 08:45:42;;;;;;;8.73;5.57;;;307.50;2304.00;;;;;;4811414;29;20034;-96
2021/11/05 08:48:08;;;;;;;11.85;9.15;;;307.50;2304.00;;;;;;4810768;29;20035;-94
2021/11/05 08:50:35;;;;;;;7.57;6.65;;;307.50;2304.00;;;;;;4813108;29;20493;-95
2021/11/05 08:53:03;;;;;;;9.48;7.72;;;307.50;2304.00;;;;;;4809809;29;20031;-93
2021/11/05 08:55:29;;;;;;;9.68;8.45;;;307.60;2304.00;;;;;;4809609;29;20043;-96
2021/11/05 08:57:55;;;;;;;17.52;14.02;;;307.60;2304.00;;;;;;4809840;29;20035;-85
2021/11/05 09:00:26;;;;;;;20.02;17.58;;;307.60;2304.00;;;;;;4810142;29;20485;-90
2021/11/05 09:02:52;;;;;;;19.75;16.30;;;307.70;2304.00;;;;;;4810010;29;20031;-96
2021/11/05 09:05:19;;;;;;;22.58;19.10;;;307.70;2304.00;;;;;;4809431;29;20027;-94
2021/11/05 09:07:46;;;;;;;22.48;18.67;;;307.80;2304.00;;;;;;4819998;29;20035;-94
2021/11/05 09:10:12;;;;;;;24.33;17.70;;;307.80;2304.00;;;;;;4808971;29;20054;-92
2021/11/05 09:12:39;;;;;;;20.23;15.15;;;307.80;2304.00;;;;;;4809950;29;20037;-93
2021/11/05 09:15:10;;;;;;;14.98;12.00;;;307.90;2304.00;;;;;;4808445;29;20408;-94
2021/11/05 09:17:40;;;;;;;13.77;9.98;;;307.80;2304.00;;;;;;4808372;29;20070;-86
2021/11/05 09:20:08;;;;;;;13.75;9.40;;;307.80;2304.00;;;;;;4809562;29;20038;-84
2021/11/05 09:22:34;;;;;;;27.83;18.20;;;307.80;2304.00;;;;;;4809372;29;20156;-87
2021/11/05 09:25:00;;;;;;;45.42;27.40;;;307.80;2304.00;;;;;;4808957;29;20027;-80
2021/11/05 09:27:29;;;;;;;43.13;27.25;;;307.90;2304.00;;;;;;4822966;29;20126;-83
2021/11/05 09:29:55;;;;;;;49.83;26.80;;;307.80;2304.00;;;;;;4807786;29;20039;-85
2021/11/05 09:32:24;;;;;;;24.05;13.38;;;307.70;2304.00;;;;;;4807692;29;20062;-83
2021/11/05 09:34:50;;;;;;;25.20;13.25;;;307.80;2304.00;;;;;;4808966;29;20031;-80
2021/11/05 09:37:16;;;;;;;22.05;12.80;;;307.80;2304.00;;;;;;4808444;29;20035;-80
2021/11/05 09:39:43;;;;;;;21.27;12.52;;;307.80;2304.00;;;;;;4807469;29;20031;-84
2021/11/05 09:42:09;;;;;;;23.92;13.55;;;307.80;2304.00;;;;;;4808868;29;20469;-84
2021/11/05 09:44:35;;;;;;;29.05;16.10;;;307.90;2304.00;;;;;;4808633;29;20500;-84
2021/11/05 09:47:04;;;;;;;29.95;16.80;;;307.90;2304.00;;;;;;4807430;29;20381;-78
2021/11/05 09:49:31;;;;;;;32.72;15.95;;;307.90;2304.00;;;;;;4791985;29;20035;-87
2021/11/05 09:51:59;;;;;;;19.40;12.88;;;307.90;2304.00;;;;;;4805828;29;20037;-84
2021/11/05 09:54:27;;;;;;;15.25;10.75;;;308.00;2304.00;;;;;;4813752;29;20046;-82
2021/11/05 09:56:53;;;;;;;15.40;11.55;;;308.00;2304.00;;;;;;4807686;29;20070;-83
2021/11/05 09:59:19;;;;;;;16.55;11.85;;;308.00;2304.00;;;;;;4806716;29;20481;-79
2021/11/05 10:01:46;;;;;;;17.05;11.27;;;308.00;2304.00;;;;;;4806536;29;20039;-84
2021/11/05 10:04:13;;;;;;;17.63;10.05;;;307.90;2304.00;;;;;;4807018;29;20473;-83
2021/11/05 10:07:00;;;;;;;16.83;10.57;;;333.00;2329.60;;;;;;4807348;29;20023;-84
2021/11/05 10:09:34;;;;;;;20.45;11.55;;;307.90;2304.00;;;;;;4791457;29;20055;-84
2021/11/05 10:12:12;;;;;;;16.45;9.45;;;307.90;2304.00;;;;;;4806466;29;20031;-82
2021/11/05 10:14:38;;;;;;;12.60;8.43;;;307.90;2304.00;;;;;;4806619;29;20500;-79
2021/11/05 10:17:10;;;;;;;13.30;9.02;;;307.90;2304.00;;;;;;4807935;29;20039;-85
2021/11/05 10:19:55;;;;;;;27.08;17.73;;;307.90;2304.00;;;;;;4806869;29;20027;-82
2021/11/05 10:22:48;;;;;;;32.88;21.67;;;308.00;2304.00;;;;;;4806779;29;20385;-82
2021/11/05 10:25:49;;;;;;;27.80;17.95;;;308.00;2304.00;;;;;;4807683;29;20023;-84
2021/11/05 10:28:18;;;;;;;26.92;17.85;;;308.10;2304.00;;;;;;4787377;29;20038;-85
2021/11/05 10:30:44;;;;;;;27.65;18.95;;;308.10;2304.00;;;;;;4807607;29;20439;-87
2021/11/05 10:33:12;;;;;;;21.42;18.90;;;308.10;2304.00;;;;;;4807507;29;20088;-84
2021/11/05 10:35:39;;;;;;;41.13;36.70;;;332.80;2329.60;;;;;;4806199;29;20105;-79
2021/11/05 10:38:07;;;;;;;14.48;10.05;;;332.80;2329.60;;;;;;4807418;29;20087;-85
2021/11/05 10:40:55;;;;;;;17.33;10.95;;;332.80;2329.60;;;;;;4805733;29;20046;-80
2021/11/05 10:43:35;;;;;;;15.43;11.68;;;332.80;2329.60;;;;;;4806962;29;20058;-80
2021/11/05 10:46:02;;;;;;;11.20;9.32;;;332.90;2329.60;;;;;;4790829;29;20122;-78
2021/11/05 10:48:30;;;;;;;10.05;8.10;;;332.90;2329.60;;;;;;4805646;29;20114;-83
2021/11/05 10:51:03;;;;;;;10.15;8.80;;;333.00;2329.60;;;;;;4802969;29;20509;-80
2021/11/05 10:53:38;;;;;;;13.07;10.50;;;333.00;2329.60;;;;;;4806698;29;20496;-85
2021/11/05 10:56:24;;;;;;;14.63;10.73;;;333.00;2329.60;;;;;;4802669;29;20493;-87
2021/11/05 10:58:50;;;;;;;25.08;11.93;;;333.00;2329.60;;;;;;4806578;29;20039;-81
2021/11/05 11:01:21;;;;;;;14.48;10.63;;;333.00;2329.60;;;;;;4805200;29;20091;-81
2021/11/05 11:03:50;;;;;;;16.92;12.18;;;333.00;2329.60;;;;;;4807403;29;20377;-82
2021/11/05 11:06:42;;;;;;;36.75;26.13;;;333.00;2329.60;;;;;;4807389;29;20035;-77
2021/11/05 11:09:14;;;;;;;29.67;20.65;;;332.90;2329.60;;;;;;4807440;29;20031;-83
2021/11/05 11:11:44;;;;;;;40.13;28.08;;;332.90;2329.60;;;;;;4806269;29;20038;-85
2021/11/05 11:14:23;;;;;;;34.80;24.85;;;332.90;2329.60;;;;;;4802370;29;20102;-83
2021/11/05 11:16:56;;;;;;;36.50;23.33;;;333.00;2329.60;;;;;;4803586;29;20454;-80
2021/11/05 11:19:24;;;;;;;48.50;32.53;;;333.00;2329.60;;;;;;4799014;29;20023;-84
2021/11/05 11:21:58;;;;;;;51.25;39.70;;;333.00;2329.60;;;;;;4789981;29;20030;-85
2021/11/05 11:24:32;;;;;;;40.50;31.52;;;333.00;2329.60;;;;;;4809778;29;20092;-78
2021/11/05 11:27:00;;;;;;;28.95;20.05;;;333.10;2329.60;;;;;;4805155;29;20035;-83
2021/11/05 11:29:27;;;;;;;25.25;18.27;;;333.10;2329.60;;;;;;4805894;29;20065;-84
2021/11/05 11:31:56;;;;;;;24.10;14.15;;;333.10;2329.60;;;;;;4807256;29;20031;-85
2021/11/05 11:34:23;;;;;;;27.27;15.80;;;333.10;2329.60;;;;;;4807037;29;20121;-84
2021/11/05 11:36:52;;;;;;;25.27;10.68;;;332.90;2329.60;;;;;;4806213;29;20031;-86
2021/11/05 11:39:20;;;;;;;18.02;10.63;;;333.00;2329.60;;;;;;4806656;29;20034;-80
2021/11/05 11:41:47;;;;;;;18.27;10.25;;;333.00;2329.60;;;;;;4805635;29;20031;-81
2021/11/05 11:44:19;;;;;;;37.97;19.63;;;333.00;2329.60;;;;;;4805726;29;20492;-82
2021/11/05 11:47:08;;;;;;;56.47;25.08;;;333.00;2329.60;;;;;;4807627;29;20019;-81
2021/11/05 11:49:40;;;;;;;21.58;11.30;;;333.00;2329.60;;;;;;4806469;29;20127;-81
2021/11/05 11:52:15;;;;;;;18.67;9.80;;;332.90;2329.60;;;;;;4807148;29;20038;-84
2021/11/05 11:54:43;;;;;;;20.10;11.00;;;332.90;2329.60;;;;;;4805912;29;20392;-87
2021/11/05 11:57:19;;;;;;;34.53;16.02;;;332.90;2329.60;;;;;;4790847;29;20027;-86
2021/11/05 12:00:25;;;;;;;74.93;29.50;;;333.00;2329.60;;;;;;4805600;29;20492;-82
2021/11/05 12:03:02;;;;;;;78.47;30.75;;;332.90;2329.60;;;;;;4750726;30;20035;-85
2021/11/05 12:05:30;;;;;;;39.28;18.23;;;332.90;2329.60;;;;;;4752644;30;20124;-83
2021/11/05 12:08:19;;;;;;;17.33;10.15;;;332.90;2329.60;;;;;;4746544;30;20102;-82
2021/11/05 12:10:55;;;;;;;16.23;9.73;;;332.90;2329.60;;;;;;4764685;30;20071;-81